Vg 117 Kungsvik — SBTH — position and weather

sailwx.info

Track history (hours):
 
Tides and Currents Weather Stations Pressure Air Temp Water Temp Dewpoint Dewpoint Depression Visibility Wind Speed Wind Dir Waves Ship Positions

Vg 117 Kungsvik

Last reported at 2016-Sep-27 00:13 UTC. Time now 2016-Dec-03 19:38 UTC.
Position N 57°04' E 012°16'.
Warning: this ship's position is months out of date.

Length 17 m; draft 3.7 m.

Type: Fishing. MMSI: 266137000.

Date/timePositionNaut miles runAvg speedWind from/ knotsBaromVisibWave heightAir tempDewpointWater temp
2016-Sep-27 00:13N 57°04' E 012°16'0 0.0
2016-Sep-26 20:31N 57°04' E 012°16'11 2.3
2016-Sep-26 15:33N 56°52' E 012°11'1 0.3
2016-Sep-26 13:33N 56°53' E 012°10'2 0.9
2016-Sep-26 11:32N 56°51' E 012°12'7 2.3
2016-Sep-26 08:33N 56°45' E 012°18'15 2.5
2016-Sep-26 02:30N 56°60' E 012°14'4 4.1
2016-Sep-26 01:32N 57°04' E 012°16'0 0.0
2016-Sep-26 00:28N 57°04' E 012°16'0 0.0
2016-Sep-25 21:10N 57°04' E 012°16'0 0.0
2016-Sep-25 17:29N 57°04' E 012°16'0 0.0
2016-Sep-25 16:22N 57°04' E 012°16'0 0.0
2016-Sep-25 15:22N 57°04' E 012°16'0 0.0
2016-Sep-25 14:28N 57°04' E 012°16'0 0.0
2016-Sep-25 12:22N 57°04' E 012°16'0 0.0
2016-Sep-25 11:28N 57°04' E 012°16'0 0.0
2016-Sep-25 10:16N 57°04' E 012°16'0 0.0
2016-Sep-25 09:28N 57°04' E 012°16'0 0.0
2016-Sep-25 07:16N 57°04' E 012°16'0 0.0
2016-Sep-25 04:28N 57°04' E 012°16'0 0.0
2016-Sep-25 00:28N 57°04' E 012°16'0 0.0
2016-Sep-24 22:22N 57°04' E 012°16'0 0.0
2016-Sep-24 21:22N 57°04' E 012°16'0 0.0
2016-Sep-24 19:28N 57°04' E 012°16'0 0.0
2016-Sep-24 18:04N 57°04' E 012°16'0 0.0
2016-Sep-24 17:10N 57°04' E 012°16'0 0.0
2016-Sep-24 16:10N 57°04' E 012°16'0 0.0
2016-Sep-24 14:22N 57°04' E 012°16'0 0.0
2016-Sep-24 12:28N 57°04' E 012°16'0 0.0
2016-Sep-24 10:16N 57°04' E 012°16'0 0.0
2016-Sep-24 09:22N 57°04' E 012°16'0 0.0
2016-Sep-24 03:28N 57°04' E 012°16'0 0.0
2016-Sep-24 02:22N 57°04' E 012°16'0 0.0
2016-Sep-24 01:28N 57°04' E 012°16'0 0.0
2016-Sep-24 00:28N 57°04' E 012°16'0 0.0
2016-Sep-23 17:28N 57°04' E 012°16'0 0.0
2016-Sep-23 16:22N 57°04' E 012°16'0 0.0
2016-Sep-23 15:28N 57°04' E 012°16'0 0.0
2016-Sep-23 13:28N 57°04' E 012°16'0 0.0
2016-Sep-23 06:28N 57°04' E 012°16'0 0.0
2016-Sep-23 04:28N 57°04' E 012°16'0 0.0
2016-Sep-23 03:28N 57°04' E 012°16'0 0.0
2016-Sep-23 02:28N 57°04' E 012°16'0 0.0
2016-Sep-23 01:28N 57°04' E 012°16'0 0.0
2016-Sep-23 00:04N 57°04' E 012°16'0 0.0
2016-Sep-22 23:28N 57°04' E 012°16'0 0.0
2016-Sep-22 20:22N 57°04' E 012°16'14 1.8
2016-Sep-22 12:33N 56°51' E 012°08'5 0.6
2016-Sep-22 04:33N 56°51' E 012°16'2 2.2
2016-Sep-22 03:33N 56°53' E 012°14'11 2.2
2016-Sep-21 22:29N 57°04' E 012°16'9 1.5
2016-Sep-21 16:28N 56°55' E 012°13'4 0.5
2016-Sep-21 09:33N 56°51' E 012°10'2 1.5
2016-Sep-21 08:33N 56°52' E 012°09'1 0.5
2016-Sep-21 05:33N 56°51' E 012°09'4 2.1
2016-Sep-21 03:32N 56°55' E 012°13'5 5.1
2016-Sep-21 02:32N 56°60' E 012°14'3 0.3
2016-Sep-20 17:31N 56°57' E 012°14'5 1.8
2016-Sep-20 14:34N 56°52' E 012°14'2 2.0
2016-Sep-20 13:33N 56°53' E 012°12'1 0.3
2016-Sep-20 10:33N 56°53' E 012°14'2 0.8
2016-Sep-20 08:33N 56°51' E 012°14'2 1.8
2016-Sep-20 07:33N 56°53' E 012°12'1 1.4
2016-Sep-20 06:32N 56°52' E 012°12'7 1.8
2016-Sep-20 02:33N 56°59' E 012°14'5 0.6
2016-Sep-19 18:15N 57°04' E 012°16'11 6.4
2016-Sep-19 16:33N 56°53' E 012°15'3 1.5
2016-Sep-19 14:32N 56°50' E 012°15'1 1.4
2016-Sep-19 13:32N 56°50' E 012°13'3 2.6
2016-Sep-19 12:34N 56°48' E 012°14'2 2.4
2016-Sep-19 11:33N 56°46' E 012°14'5 2.5
2016-Sep-19 09:33N 56°51' E 012°13'4 2.0
2016-Sep-19 07:32N 56°47' E 012°14'2 1.8
2016-Sep-19 06:33N 56°46' E 012°17'8 2.6
2016-Sep-19 03:32N 56°53' E 012°14'6 5.9
2016-Sep-19 02:33N 56°59' E 012°14'5 2.1
2016-Sep-19 00:22N 57°04' E 012°16'0 0.0
2016-Sep-18 19:28N 57°04' E 012°16'0 0.0
2016-Sep-18 15:28N 57°04' E 012°16'0 0.0
2016-Sep-18 14:22N 57°04' E 012°16'0 0.0
2016-Sep-18 10:22N 57°04' E 012°16'0 0.0
2016-Sep-18 09:10N 57°04' E 012°16'0 0.0
2016-Sep-18 02:16N 57°04' E 012°16'0 0.0
2016-Sep-18 01:28N 57°04' E 012°16'0 0.0
2016-Sep-17 22:28N 57°04' E 012°16'0 0.0
2016-Sep-17 20:29N 57°04' E 012°16'0 0.0
2016-Sep-17 19:16N 57°04' E 012°16'0 0.0
2016-Sep-17 13:28N 57°04' E 012°16'0 0.0
2016-Sep-17 12:28N 57°04' E 012°16'0 0.0
2016-Sep-17 10:17N 57°04' E 012°16'0 0.0
2016-Sep-17 09:22N 57°04' E 012°16'0 0.0
2016-Sep-17 08:28N 57°04' E 012°16'0 0.0
2016-Sep-17 07:22N 57°04' E 012°16'0 0.0
2016-Sep-17 05:28N 57°04' E 012°16'0 0.0
2016-Sep-17 04:22N 57°04' E 012°16'0 0.0
2016-Sep-17 00:28N 57°04' E 012°16'  
Track history (hours):
 
Tides and Currents Weather Stations Pressure Air Temp Water Temp Dewpoint Dewpoint Depression Visibility Wind Speed Wind Dir Waves Ship Positions

Vg 117 Kungsvik

Last reported at 2016-Sep-27 00:13 UTC. Time now 2016-Dec-03 19:38 UTC.
Position N 57°04' E 012°16'.
Warning: this ship's position is months out of date.

Length 17 m; draft 3.7 m.

Type: Fishing. MMSI: 266137000.

Date/timePositionNaut miles runAvg speedWind from/ knotsBaromVisibWave heightAir tempDewpointWater temp
2016-Sep-27 00:13N 57°04' E 012°16'0 0.0
2016-Sep-26 20:31N 57°04' E 012°16'11 2.3
2016-Sep-26 15:33N 56°52' E 012°11'1 0.3
2016-Sep-26 13:33N 56°53' E 012°10'2 0.9
2016-Sep-26 11:32N 56°51' E 012°12'7 2.3
2016-Sep-26 08:33N 56°45' E 012°18'15 2.5
2016-Sep-26 02:30N 56°60' E 012°14'4 4.1
2016-Sep-26 01:32N 57°04' E 012°16'0 0.0
2016-Sep-26 00:28N 57°04' E 012°16'0 0.0
2016-Sep-25 21:10N 57°04' E 012°16'0 0.0
2016-Sep-25 17:29N 57°04' E 012°16'0 0.0
2016-Sep-25 16:22N 57°04' E 012°16'0 0.0
2016-Sep-25 15:22N 57°04' E 012°16'0 0.0
2016-Sep-25 14:28N 57°04' E 012°16'0 0.0
2016-Sep-25 12:22N 57°04' E 012°16'0 0.0
2016-Sep-25 11:28N 57°04' E 012°16'0 0.0
2016-Sep-25 10:16N 57°04' E 012°16'0 0.0
2016-Sep-25 09:28N 57°04' E 012°16'0 0.0
2016-Sep-25 07:16N 57°04' E 012°16'0 0.0
2016-Sep-25 04:28N 57°04' E 012°16'0 0.0
2016-Sep-25 00:28N 57°04' E 012°16'0 0.0
2016-Sep-24 22:22N 57°04' E 012°16'0 0.0
2016-Sep-24 21:22N 57°04' E 012°16'0 0.0
2016-Sep-24 19:28N 57°04' E 012°16'0 0.0
2016-Sep-24 18:04N 57°04' E 012°16'0 0.0
2016-Sep-24 17:10N 57°04' E 012°16'0 0.0
2016-Sep-24 16:10N 57°04' E 012°16'0 0.0
2016-Sep-24 14:22N 57°04' E 012°16'0 0.0
2016-Sep-24 12:28N 57°04' E 012°16'0 0.0
2016-Sep-24 10:16N 57°04' E 012°16'0 0.0
2016-Sep-24 09:22N 57°04' E 012°16'0 0.0
2016-Sep-24 03:28N 57°04' E 012°16'0 0.0
2016-Sep-24 02:22N 57°04' E 012°16'0 0.0
2016-Sep-24 01:28N 57°04' E 012°16'0 0.0
2016-Sep-24 00:28N 57°04' E 012°16'0 0.0
2016-Sep-23 17:28N 57°04' E 012°16'0 0.0
2016-Sep-23 16:22N 57°04' E 012°16'0 0.0
2016-Sep-23 15:28N 57°04' E 012°16'0 0.0
2016-Sep-23 13:28N 57°04' E 012°16'0 0.0
2016-Sep-23 06:28N 57°04' E 012°16'0 0.0
2016-Sep-23 04:28N 57°04' E 012°16'0 0.0
2016-Sep-23 03:28N 57°04' E 012°16'0 0.0
2016-Sep-23 02:28N 57°04' E 012°16'0 0.0
2016-Sep-23 01:28N 57°04' E 012°16'0 0.0
2016-Sep-23 00:04N 57°04' E 012°16'0 0.0
2016-Sep-22 23:28N 57°04' E 012°16'0 0.0
2016-Sep-22 20:22N 57°04' E 012°16'14 1.8
2016-Sep-22 12:33N 56°51' E 012°08'5 0.6
2016-Sep-22 04:33N 56°51' E 012°16'2 2.2
2016-Sep-22 03:33N 56°53' E 012°14'11 2.2
2016-Sep-21 22:29N 57°04' E 012°16'9 1.5
2016-Sep-21 16:28N 56°55' E 012°13'4 0.5
2016-Sep-21 09:33N 56°51' E 012°10'2 1.5
2016-Sep-21 08:33N 56°52' E 012°09'1 0.5
2016-Sep-21 05:33N 56°51' E 012°09'4 2.1
2016-Sep-21 03:32N 56°55' E 012°13'5 5.1
2016-Sep-21 02:32N 56°60' E 012°14'3 0.3
2016-Sep-20 17:31N 56°57' E 012°14'5 1.8
2016-Sep-20 14:34N 56°52' E 012°14'2 2.0
2016-Sep-20 13:33N 56°53' E 012°12'1 0.3
2016-Sep-20 10:33N 56°53' E 012°14'2 0.8
2016-Sep-20 08:33N 56°51' E 012°14'2 1.8
2016-Sep-20 07:33N 56°53' E 012°12'1 1.4
2016-Sep-20 06:32N 56°52' E 012°12'7 1.8
2016-Sep-20 02:33N 56°59' E 012°14'5 0.6
2016-Sep-19 18:15N 57°04' E 012°16'11 6.4
2016-Sep-19 16:33N 56°53' E 012°15'3 1.5
2016-Sep-19 14:32N 56°50' E 012°15'1 1.4
2016-Sep-19 13:32N 56°50' E 012°13'3 2.6
2016-Sep-19 12:34N 56°48' E 012°14'2 2.4
2016-Sep-19 11:33N 56°46' E 012°14'5 2.5
2016-Sep-19 09:33N 56°51' E 012°13'4 2.0
2016-Sep-19 07:32N 56°47' E 012°14'2 1.8
2016-Sep-19 06:33N 56°46' E 012°17'8 2.6
2016-Sep-19 03:32N 56°53' E 012°14'6 5.9
2016-Sep-19 02:33N 56°59' E 012°14'5 2.1
2016-Sep-19 00:22N 57°04' E 012°16'0 0.0
2016-Sep-18 19:28N 57°04' E 012°16'0 0.0
2016-Sep-18 15:28N 57°04' E 012°16'0 0.0
2016-Sep-18 14:22N 57°04' E 012°16'0 0.0
2016-Sep-18 10:22N 57°04' E 012°16'0 0.0
2016-Sep-18 09:10N 57°04' E 012°16'0 0.0
2016-Sep-18 02:16N 57°04' E 012°16'0 0.0
2016-Sep-18 01:28N 57°04' E 012°16'0 0.0
2016-Sep-17 22:28N 57°04' E 012°16'0 0.0
2016-Sep-17 20:29N 57°04' E 012°16'0 0.0
2016-Sep-17 19:16N 57°04' E 012°16'0 0.0
2016-Sep-17 13:28N 57°04' E 012°16'0 0.0
2016-Sep-17 12:28N 57°04' E 012°16'0 0.0
2016-Sep-17 10:17N 57°04' E 012°16'0 0.0
2016-Sep-17 09:22N 57°04' E 012°16'0 0.0
2016-Sep-17 08:28N 57°04' E 012°16'0 0.0
2016-Sep-17 07:22N 57°04' E 012°16'0 0.0
2016-Sep-17 05:28N 57°04' E 012°16'0 0.0
2016-Sep-17 04:22N 57°04' E 012°16'0 0.0
2016-Sep-17 00:28N 57°04' E 012°16'  

Dump ship's entire track history